Pagrindinis puslapis
METAR-TAF:

METAR-TAF

Oro uostai :

Yasuj, Iranas

platuma: 30-41-49N, ilguma: 051-33E, Aukštis: 1825 m

Dabartinis oras

Ataskaita buvo paskelbta 1 valandą ir 29 minutes, ne 22:00 UTC
Ramus vėjas
Temperatūra 17°C
Drėgmė 34%
Slėgis 1021 hPa
Matomumas 10 km arba daugiau
nėra debesų žemiau 1500 m ir nėra kamuolinių lietaus debesų

METAR: OISY 242200Z 00000KT CAVOK 17/01 Q1021

Laikas: 02:59 (23:29 UTC)


TAF: trūkstamas

Orai ataskaitas ir orų prognozės (METAR, TAF).

turimą stotys yra geltonos ir raudonos taškus žemėlapyje.

Perkelti pele per norėdami pamatyti stoties vardą.

Tada spustelėkite, norėdami matyti oro stebėjimo ir prognozės.

Norėdami pakeisti žemėlapį: spustelėkite ant žalios mygtukų su juodo kryžiaus žemyn,; žalią mygtuką su brūkšneliu, jei norite nutolinti; arba žalių rodyklių gretimoms žemėlapius.


METAR-TAF: